createdAt,value
2023-04-16T03:34:10.317Z,9.69
2023-04-16T03:37:00.428Z,9.75
2023-04-16T03:39:48.314Z,9.69
2023-04-16T03:42:36.377Z,9.64
2023-04-16T03:45:24.261Z,9.64
2023-04-16T03:48:13.958Z,9.63
2023-04-16T03:51:01.864Z,9.47
2023-04-16T03:53:49.938Z,9.57
2023-04-16T03:56:40.723Z,9.63
2023-04-16T03:59:28.669Z,9.65
2023-04-16T04:02:16.501Z,9.52
2023-04-16T04:05:04.866Z,9.65
2023-04-16T04:07:53.280Z,9.67
2023-04-16T04:10:41.075Z,9.80
2023-04-16T04:13:31.432Z,9.76
2023-04-16T04:16:20.510Z,9.73
2023-04-16T04:19:10.174Z,9.77
2023-04-16T04:21:58.542Z,9.88
2023-04-16T04:24:46.317Z,9.77
2023-04-16T04:27:34.822Z,10.00
2023-04-16T04:30:23.482Z,10.05
2023-04-16T04:33:14.294Z,10.04
2023-04-16T04:36:06.264Z,10.09
2023-04-16T04:38:55.218Z,10.08
2023-04-16T04:41:43.629Z,10.11
2023-04-16T04:45:34.349Z,10.26
2023-04-16T04:48:26.501Z,10.44
2023-04-16T04:51:15.248Z,10.46
2023-04-16T04:54:04.778Z,10.48
2023-04-16T04:56:55.398Z,10.59
2023-04-16T04:59:43.410Z,10.56
2023-04-16T05:02:46.339Z,10.88
2023-04-16T05:05:34.382Z,10.92
2023-04-16T05:08:29.217Z,11.21
2023-04-16T05:11:17.033Z,11.42
2023-04-16T05:14:04.983Z,11.91
2023-04-16T05:16:52.819Z,11.85
2023-04-16T05:19:40.679Z,12.03
2023-04-16T05:22:35.416Z,12.86
2023-04-16T05:25:26.527Z,12.81
2023-04-16T05:28:17.395Z,12.47
2023-04-16T05:31:05.337Z,12.80
2023-04-16T05:34:33.564Z,12.89
2023-04-16T05:40:56.237Z,13.29
2023-04-16T05:45:14.131Z,12.93
2023-04-16T05:48:02.028Z,13.93
2023-04-16T05:50:59.994Z,14.09
2023-04-16T05:57:26.622Z,13.49
2023-04-16T06:00:20.350Z,13.68
2023-04-16T06:03:08.359Z,13.71
2023-04-16T06:05:56.262Z,13.92
2023-04-16T06:08:44.142Z,13.94
2023-04-16T06:11:32.412Z,14.23
2023-04-16T06:14:20.884Z,14.22
2023-04-16T06:17:08.745Z,14.49
2023-04-16T06:19:56.471Z,14.16
2023-04-16T06:22:44.297Z,13.91
2023-04-16T06:25:32.077Z,14.11
2023-04-16T06:28:19.810Z,14.39
2023-04-16T06:31:07.712Z,14.23
2023-04-16T06:33:55.464Z,14.43
2023-04-16T06:36:43.336Z,14.66
2023-04-16T06:39:31.312Z,14.29
2023-04-16T06:42:37.257Z,14.44
2023-04-16T06:45:25.093Z,14.57
2023-04-16T06:48:12.985Z,14.61
2023-04-16T06:51:02.335Z,14.87
2023-04-16T06:54:00.044Z,15.06
2023-04-16T06:56:47.747Z,15.41
2023-04-16T06:59:35.409Z,15.58
2023-04-16T07:02:24.330Z,15.32
2023-04-16T07:05:12.294Z,14.60
2023-04-16T07:08:02.240Z,14.80
2023-04-16T07:10:50.031Z,14.84
2023-04-16T07:13:40.766Z,15.44
2023-04-16T07:16:28.523Z,15.40
2023-04-16T07:19:16.338Z,15.19
2023-04-16T07:22:04.524Z,15.31
2023-04-16T07:24:55.159Z,15.17
2023-04-16T07:27:42.950Z,15.11
2023-04-16T07:30:34.465Z,15.16
2023-04-16T07:33:40.508Z,14.96
2023-04-16T07:36:28.599Z,15.08
2023-04-16T07:39:16.250Z,14.73
2023-04-16T07:42:03.968Z,15.20
2023-04-16T07:44:51.650Z,15.65
2023-04-16T07:47:39.379Z,16.34
2023-04-16T07:50:27.127Z,16.63
2023-04-16T07:53:14.862Z,17.26
2023-04-16T07:56:02.566Z,17.25
2023-04-16T07:58:50.322Z,17.84
2023-04-16T08:01:38.057Z,18.18
2023-04-16T08:04:26.514Z,18.06
2023-04-16T08:07:14.381Z,18.07
2023-04-16T08:10:02.620Z,18.52
2023-04-16T08:12:50.420Z,18.50
2023-04-16T08:15:38.059Z,18.20
2023-04-16T08:18:25.809Z,18.48
2023-04-16T08:21:13.538Z,18.14
2023-04-16T08:24:01.263Z,18.73
2023-04-16T08:26:49.061Z,19.20
2023-04-16T08:29:36.828Z,18.20
2023-04-16T08:32:24.588Z,19.01
2023-04-16T08:35:12.332Z,19.35
2023-04-16T08:38:03.614Z,18.96
2023-04-16T08:40:51.494Z,19.45
2023-04-16T08:43:44.133Z,20.53
2023-04-16T08:46:33.425Z,20.83
2023-04-16T08:49:21.330Z,21.13
2023-04-16T08:52:15.062Z,20.11
2023-04-16T08:55:09.138Z,19.99
2023-04-16T08:58:01.750Z,19.69
2023-04-16T09:00:49.862Z,19.06
2023-04-16T09:03:38.302Z,18.80
2023-04-16T09:06:31.831Z,18.98
2023-04-16T09:09:23.293Z,19.54
2023-04-16T09:12:11.058Z,19.37
2023-04-16T09:15:02.965Z,20.38
2023-04-16T09:17:50.592Z,20.54
2023-04-16T09:20:39.552Z,20.66
2023-04-16T09:23:27.227Z,20.97
2023-04-16T09:26:14.855Z,21.48
2023-04-16T09:29:02.637Z,21.40
2023-04-16T09:32:04.659Z,21.60
2023-04-16T09:34:54.913Z,21.67
2023-04-16T09:37:42.600Z,20.20
2023-04-16T09:40:31.443Z,20.48
2023-04-16T09:43:19.403Z,22.07
2023-04-16T09:46:08.012Z,21.93
2023-04-16T09:48:56.515Z,22.00
2023-04-16T09:51:49.858Z,21.71
2023-04-16T09:54:37.957Z,22.05
2023-04-16T09:57:25.919Z,20.87
2023-04-16T10:00:19.692Z,20.67
2023-04-16T10:03:08.765Z,20.39
2023-04-16T10:06:19.968Z,20.02
2023-04-16T10:09:11.275Z,20.04
2023-04-16T10:11:59.538Z,20.36
2023-04-16T10:14:49.467Z,20.69
2023-04-16T10:17:39.505Z,20.20
2023-04-16T10:20:30.227Z,21.27
2023-04-16T10:23:19.592Z,21.51
2023-04-16T10:26:07.300Z,21.56
2023-04-16T10:28:55.935Z,20.73
2023-04-16T10:31:43.806Z,20.82
2023-04-16T10:34:32.120Z,21.30
2023-04-16T10:37:19.903Z,21.97
2023-04-16T10:40:24.157Z,22.23
2023-04-16T10:43:18.371Z,21.46
2023-04-16T10:46:27.012Z,21.65
2023-04-16T10:49:22.932Z,22.71
2023-04-16T10:52:17.522Z,23.02
2023-04-16T10:55:05.697Z,22.62
2023-04-16T10:57:54.227Z,22.27
2023-04-16T11:00:52.180Z,22.88
2023-04-16T11:04:01.404Z,22.35
2023-04-16T11:07:17.442Z,22.78
2023-04-16T11:10:13.501Z,23.33
2023-04-16T11:13:01.520Z,23.33
2023-04-16T11:15:49.279Z,23.03
2023-04-16T11:18:38.603Z,23.02
2023-04-16T11:21:32.878Z,23.50
2023-04-16T11:28:49.342Z,23.40
2023-04-16T11:31:39.284Z,23.25
2023-04-16T11:34:27.080Z,23.30
2023-04-16T11:37:14.956Z,22.77
2023-04-16T11:40:07.239Z,23.43
2023-04-16T11:42:54.923Z,24.28
2023-04-16T11:46:07.932Z,23.13
2023-04-16T11:49:01.002Z,24.40
2023-04-16T11:51:48.881Z,24.34
2023-04-16T11:54:38.314Z,23.16
2023-04-16T11:57:30.907Z,23.42
2023-04-16T12:00:24.602Z,23.63
2023-04-16T12:03:12.683Z,23.65
2023-04-16T12:06:08.824Z,24.21
2023-04-16T12:08:56.661Z,24.46
2023-04-16T12:11:44.569Z,23.82
2023-04-16T12:14:32.830Z,23.97
2023-04-16T12:17:21.605Z,23.50
2023-04-16T12:20:11.422Z,23.97
2023-04-16T12:23:01.751Z,24.63
2023-04-16T12:25:50.251Z,24.38
2023-04-16T12:28:38.878Z,23.59
2023-04-16T12:31:38.618Z,23.47
2023-04-16T12:34:46.777Z,23.07
2023-04-16T12:37:35.563Z,23.65
2023-04-16T12:40:23.395Z,23.64
2023-04-16T12:43:11.074Z,24.25
2023-04-16T12:45:58.858Z,24.73
2023-04-16T12:48:47.209Z,24.58
2023-04-16T12:51:39.074Z,24.05
2023-04-16T12:54:29.322Z,23.89
2023-04-16T12:57:17.145Z,24.03
2023-04-16T13:00:06.860Z,24.01
2023-04-16T13:02:54.694Z,24.21
2023-04-16T13:05:42.783Z,24.15
2023-04-16T13:08:30.990Z,23.60
2023-04-16T13:14:39.199Z,22.62
2023-04-16T13:17:49.769Z,22.62
2023-04-16T13:20:57.605Z,22.52
2023-04-16T13:23:52.830Z,22.56
2023-04-16T13:30:27.778Z,22.65
2023-04-16T13:33:15.545Z,22.79
2023-04-16T13:36:06.673Z,22.38
2023-04-16T13:38:55.796Z,22.33
2023-04-16T13:41:52.634Z,21.67
2023-04-16T13:44:40.586Z,21.54
2023-04-16T13:47:28.640Z,21.84
2023-04-16T13:50:21.258Z,21.19
2023-04-16T13:53:09.247Z,21.83
2023-04-16T13:55:56.970Z,21.91
2023-04-16T13:58:47.700Z,21.86
2023-04-16T14:01:35.454Z,21.44
2023-04-16T14:04:26.361Z,20.96
2023-04-16T14:07:17.382Z,21.10
2023-04-16T14:10:08.416Z,21.08
2023-04-16T14:12:57.629Z,20.92
2023-04-16T14:15:45.309Z,20.90
2023-04-16T14:18:35.331Z,20.38
2023-04-16T14:21:23.153Z,20.72
2023-04-16T14:24:10.965Z,20.52
2023-04-16T14:26:58.670Z,20.70
2023-04-16T14:29:47.881Z,20.81
2023-04-16T14:32:37.306Z,20.56
2023-04-16T14:35:41.548Z,20.85
2023-04-16T14:39:11.062Z,20.59
2023-04-16T14:41:58.937Z,20.46
2023-04-16T14:44:46.930Z,20.00
2023-04-16T14:50:26.112Z,19.88
2023-04-16T14:53:14.041Z,19.86
2023-04-16T14:56:01.964Z,20.04
2023-04-16T14:58:49.919Z,19.55
2023-04-16T15:01:40.047Z,20.02
2023-04-16T15:04:29.748Z,19.56
2023-04-16T15:07:17.511Z,19.79
2023-04-16T15:10:06.583Z,19.75
2023-04-16T15:12:54.231Z,19.74
2023-04-16T15:15:42.476Z,19.24
2023-04-16T15:18:30.541Z,19.57
2023-04-16T15:21:18.683Z,18.87
2023-04-16T15:24:09.035Z,18.97
2023-04-16T15:27:02.630Z,19.07
2023-04-16T15:29:50.859Z,19.18
2023-04-16T15:32:39.027Z,19.27
2023-04-16T15:35:26.873Z,19.30
2023-04-16T15:38:17.603Z,19.23
2023-04-16T15:41:05.534Z,19.05
2023-04-16T15:43:55.350Z,18.92
2023-04-16T15:46:43.256Z,19.04
2023-04-16T15:49:34.587Z,18.76
2023-04-16T15:52:25.439Z,18.82
2023-04-16T15:55:13.899Z,18.89
2023-04-16T15:58:02.132Z,18.52
2023-04-16T16:00:52.818Z,18.59
2023-04-16T16:03:40.687Z,18.40
2023-04-16T16:06:28.711Z,18.20
2023-04-16T16:09:25.797Z,18.21
2023-04-16T16:12:13.806Z,18.07
2023-04-16T16:15:02.496Z,17.92
2023-04-16T16:17:50.284Z,17.88
2023-04-16T16:20:41.118Z,17.89
2023-04-16T16:23:29.072Z,17.37
2023-04-16T16:26:17.114Z,17.50
2023-04-16T16:29:08.640Z,17.31
2023-04-16T16:31:56.716Z,17.06
2023-04-16T16:34:44.530Z,16.95
2023-04-16T16:37:33.242Z,16.56
2023-04-16T16:40:21.101Z,16.66
2023-04-16T16:43:09.627Z,16.57
2023-04-16T16:45:57.418Z,16.40
2023-04-16T16:48:45.185Z,16.08
2023-04-16T16:51:34.094Z,15.94
2023-04-16T16:54:21.858Z,15.59
2023-04-16T16:57:09.625Z,15.62
2023-04-16T16:59:58.991Z,15.40
2023-04-16T17:02:47.162Z,15.54
2023-04-16T17:05:35.737Z,15.55
2023-04-16T17:08:24.053Z,15.54
2023-04-16T17:11:11.801Z,15.38
2023-04-16T17:13:59.507Z,15.18
2023-04-16T17:16:50.068Z,15.38
2023-04-16T17:19:37.791Z,15.27
2023-04-16T17:22:25.683Z,15.25
2023-04-16T17:25:14.148Z,15.38
2023-04-16T17:28:03.015Z,15.34
2023-04-16T17:30:56.435Z,15.33
2023-04-16T17:33:44.549Z,15.18
2023-04-16T17:36:32.476Z,15.07
2023-04-16T17:39:21.224Z,14.62
2023-04-16T17:42:08.937Z,14.64
2023-04-16T17:44:59.857Z,14.57
2023-04-16T17:47:47.544Z,14.34
2023-04-16T17:50:36.507Z,14.19
2023-04-16T17:53:26.064Z,14.15
2023-04-16T17:56:14.854Z,14.06
2023-04-16T17:59:02.770Z,13.95
2023-04-16T18:01:53.025Z,14.21
2023-04-16T18:04:41.053Z,14.21
2023-04-16T18:07:28.814Z,14.10
2023-04-16T18:10:16.476Z,13.95
2023-04-16T18:13:04.314Z,13.77
2023-04-16T18:15:53.200Z,13.81
2023-04-16T18:18:41.004Z,13.42
2023-04-16T18:21:30.047Z,13.85
2023-04-16T18:24:17.690Z,13.77
2023-04-16T18:27:05.886Z,13.86
2023-04-16T18:29:55.219Z,13.93
2023-04-16T18:32:56.152Z,13.83
2023-04-16T18:35:50.884Z,13.95
2023-04-16T18:38:46.553Z,13.85
2023-04-16T18:41:43.139Z,13.93
2023-04-16T18:44:30.877Z,13.67
2023-04-16T18:47:18.693Z,13.86
2023-04-16T18:50:08.300Z,13.87
2023-04-16T18:52:56.160Z,13.69
2023-04-16T18:55:43.877Z,13.69
2023-04-16T18:58:31.636Z,13.70
2023-04-16T19:01:19.369Z,13.74
2023-04-16T19:04:07.152Z,13.77
2023-04-16T19:06:57.613Z,13.90
2023-04-16T19:09:45.526Z,13.74
2023-04-16T19:12:33.978Z,13.37
2023-04-16T19:15:21.657Z,13.84
2023-04-16T19:18:09.452Z,13.90
2023-04-16T19:21:03.020Z,13.76
2023-04-16T19:23:52.996Z,13.65
2023-04-16T19:26:41.018Z,13.74
2023-04-16T19:29:28.781Z,13.65
2023-04-16T19:32:16.526Z,13.82
2023-04-16T19:35:11.322Z,13.76
2023-04-16T19:37:59.032Z,13.75
2023-04-16T19:40:49.006Z,13.67
2023-04-16T19:43:37.291Z,13.66
2023-04-16T19:46:25.164Z,13.65
2023-04-16T19:49:13.150Z,13.42
2023-04-16T19:52:01.544Z,13.54
2023-04-16T19:54:49.623Z,13.63
2023-04-16T19:57:39.631Z,13.20
2023-04-16T20:00:27.422Z,13.51
2023-04-16T20:03:15.763Z,13.27
2023-04-16T20:06:20.626Z,13.30
2023-04-16T20:09:08.251Z,13.02
2023-04-16T20:11:58.335Z,13.34
2023-04-16T20:14:48.504Z,13.20
2023-04-16T20:17:46.082Z,12.66
2023-04-16T20:20:38.127Z,13.36
2023-04-16T20:23:25.995Z,12.99
2023-04-16T20:26:18.529Z,13.12
2023-04-16T20:29:06.283Z,13.07
2023-04-16T20:31:53.983Z,13.22
2023-04-16T20:34:41.685Z,13.25
2023-04-16T20:42:33.654Z,13.06
2023-04-16T20:45:22.119Z,13.10
2023-04-16T20:48:10.001Z,13.03
2023-04-16T20:51:02.994Z,13.03
2023-04-16T20:53:52.410Z,13.02
2023-04-16T20:56:40.102Z,13.00
2023-04-16T20:59:27.802Z,12.95
2023-04-16T21:02:15.688Z,12.98
2023-04-16T21:05:03.763Z,12.94
2023-04-16T21:07:53.440Z,12.76
2023-04-16T21:10:43.156Z,12.75
2023-04-16T21:13:31.061Z,12.67
2023-04-16T21:16:18.789Z,12.48
2023-04-16T21:19:07.130Z,12.79
2023-04-16T21:21:54.830Z,12.51
2023-04-16T21:24:42.574Z,12.43
2023-04-16T21:27:30.192Z,12.71
2023-04-16T21:30:18.673Z,12.60
2023-04-16T21:33:06.449Z,12.70
2023-04-16T21:35:54.763Z,12.75
2023-04-16T21:38:42.443Z,12.76
2023-04-16T21:41:30.139Z,12.66
2023-04-16T21:44:17.826Z,12.72
2023-04-16T21:47:08.130Z,12.52
2023-04-16T21:49:55.872Z,12.80
2023-04-16T21:52:46.460Z,12.70
2023-04-16T21:55:35.084Z,12.69
2023-04-16T21:58:22.776Z,12.79
2023-04-16T22:01:11.083Z,12.89
2023-04-16T22:04:01.961Z,12.57
2023-04-16T22:06:56.057Z,12.74
2023-04-16T22:09:43.971Z,12.73
2023-04-16T22:12:31.969Z,12.82
2023-04-16T22:15:19.639Z,12.83
2023-04-16T22:18:09.930Z,12.90
2023-04-16T22:20:57.886Z,12.67
2023-04-16T22:23:46.054Z,12.78
2023-04-16T22:26:33.715Z,12.88
2023-04-16T22:29:21.462Z,12.81
2023-04-16T22:32:09.279Z,12.82
2023-04-16T22:34:57.044Z,12.74
2023-04-16T22:37:47.700Z,12.90
2023-04-16T22:40:35.384Z,12.70
2023-04-16T22:43:23.241Z,12.78
2023-04-16T22:46:10.991Z,12.78
2023-04-16T22:48:58.752Z,12.88
2023-04-16T22:51:46.587Z,12.58
2023-04-16T22:54:34.237Z,12.66
2023-04-16T22:57:25.771Z,12.57
2023-04-16T23:00:18.025Z,12.57
2023-04-16T23:03:06.117Z,12.79
2023-04-16T23:05:53.943Z,12.71
2023-04-16T23:08:41.688Z,12.81
2023-04-16T23:11:29.303Z,12.45
2023-04-16T23:14:23.064Z,12.73
2023-04-16T23:17:10.723Z,12.29
2023-04-16T23:19:58.457Z,12.68
2023-04-16T23:22:46.790Z,12.59
2023-04-16T23:25:34.493Z,12.70
2023-04-16T23:28:25.364Z,12.72
2023-04-16T23:31:13.078Z,12.71
2023-04-16T23:34:00.734Z,12.62
2023-04-16T23:36:48.424Z,12.51
2023-04-16T23:39:36.189Z,12.69
2023-04-16T23:42:27.805Z,12.57
2023-04-16T23:45:15.542Z,12.74
2023-04-16T23:48:03.286Z,12.81
2023-04-16T23:50:51.038Z,12.54
2023-04-16T23:53:40.964Z,12.55
2023-04-16T23:56:28.650Z,12.79
2023-04-16T23:59:17.034Z,12.74
